sensor_id;sensor_type;location;lat;lon;timestamp;P1;durP1;ratioP1;P2;durP2;ratioP2
14408;SDS011;7289;50.706;4.992;2023-02-28T00:01:36;0.50;;;0.50;;
14408;SDS011;7289;50.706;4.992;2023-02-28T00:04:06;0.60;;;0.60;;
14408;SDS011;7289;50.706;4.992;2023-02-28T00:06:35;0.40;;;0.40;;
14408;SDS011;7289;50.706;4.992;2023-02-28T00:09:05;0.40;;;0.40;;
14408;SDS011;7289;50.706;4.992;2023-02-28T00:11:33;0.50;;;0.50;;
14408;SDS011;7289;50.706;4.992;2023-02-28T00:14:04;0.40;;;0.40;;
14408;SDS011;7289;50.706;4.992;2023-02-28T00:16:32;0.40;;;0.40;;
14408;SDS011;7289;50.706;4.992;2023-02-28T00:19:01;0.40;;;0.40;;
14408;SDS011;7289;50.706;4.992;2023-02-28T00:21:29;0.40;;;0.40;;
14408;SDS011;7289;50.706;4.992;2023-02-28T00:23:58;0.40;;;0.40;;
14408;SDS011;7289;50.706;4.992;2023-02-28T00:26:27;0.40;;;0.40;;
14408;SDS011;7289;50.706;4.992;2023-02-28T00:28:56;0.50;;;0.50;;
14408;SDS011;7289;50.706;4.992;2023-02-28T00:31:25;0.40;;;0.40;;
14408;SDS011;7289;50.706;4.992;2023-02-28T00:33:53;0.50;;;0.50;;
14408;SDS011;7289;50.706;4.992;2023-02-28T00:36:22;0.40;;;0.40;;
14408;SDS011;7289;50.706;4.992;2023-02-28T00:38:50;0.50;;;0.50;;
14408;SDS011;7289;50.706;4.992;2023-02-28T00:41:18;0.43;;;0.43;;
14408;SDS011;7289;50.706;4.992;2023-02-28T00:43:48;0.50;;;0.50;;
14408;SDS011;7289;50.706;4.992;2023-02-28T00:46:17;0.43;;;0.43;;
14408;SDS011;7289;50.706;4.992;2023-02-28T00:48:45;0.40;;;0.40;;
14408;SDS011;7289;50.706;4.992;2023-02-28T00:51:13;0.40;;;0.40;;
14408;SDS011;7289;50.706;4.992;2023-02-28T00:53:42;0.47;;;0.47;;
14408;SDS011;7289;50.706;4.992;2023-02-28T00:56:10;0.50;;;0.50;;
14408;SDS011;7289;50.706;4.992;2023-02-28T00:58:38;0.40;;;0.40;;
14408;SDS011;7289;50.706;4.992;2023-02-28T01:01:08;0.47;;;0.47;;
14408;SDS011;7289;50.706;4.992;2023-02-28T01:03:37;0.40;;;0.40;;
14408;SDS011;7289;50.706;4.992;2023-02-28T01:06:05;0.50;;;0.50;;
14408;SDS011;7289;50.706;4.992;2023-02-28T01:08:34;0.43;;;0.43;;
14408;SDS011;7289;50.706;4.992;2023-02-28T01:11:07;0.40;;;0.40;;
14408;SDS011;7289;50.706;4.992;2023-02-28T01:13:39;0.40;;;0.40;;
14408;SDS011;7289;50.706;4.992;2023-02-28T01:16:12;0.40;;;0.40;;
14408;SDS011;7289;50.706;4.992;2023-02-28T01:18:41;0.40;;;0.40;;
14408;SDS011;7289;50.706;4.992;2023-02-28T01:21:10;0.50;;;0.50;;
14408;SDS011;7289;50.706;4.992;2023-02-28T01:23:40;0.50;;;0.50;;
14408;SDS011;7289;50.706;4.992;2023-02-28T01:26:10;0.50;;;0.50;;
14408;SDS011;7289;50.706;4.992;2023-02-28T01:28:40;0.50;;;0.50;;
14408;SDS011;7289;50.706;4.992;2023-02-28T01:31:09;0.50;;;0.50;;
14408;SDS011;7289;50.706;4.992;2023-02-28T01:33:39;0.40;;;0.40;;
14408;SDS011;7289;50.706;4.992;2023-02-28T01:36:09;0.40;;;0.40;;
14408;SDS011;7289;50.706;4.992;2023-02-28T01:38:40;0.50;;;0.50;;
14408;SDS011;7289;50.706;4.992;2023-02-28T01:41:10;0.50;;;0.50;;
14408;SDS011;7289;50.706;4.992;2023-02-28T01:43:53;0.50;;;0.50;;
14408;SDS011;7289;50.706;4.992;2023-02-28T01:46:23;0.43;;;0.43;;
14408;SDS011;7289;50.706;4.992;2023-02-28T01:48:54;0.60;;;0.60;;
14408;SDS011;7289;50.706;4.992;2023-02-28T01:51:29;0.40;;;0.40;;
14408;SDS011;7289;50.706;4.992;2023-02-28T01:54:03;0.50;;;0.50;;
14408;SDS011;7289;50.706;4.992;2023-02-28T01:56:40;0.40;;;0.40;;
14408;SDS011;7289;50.706;4.992;2023-02-28T01:59:13;0.40;;;0.40;;
14408;SDS011;7289;50.706;4.992;2023-02-28T02:01:46;0.40;;;0.40;;
14408;SDS011;7289;50.706;4.992;2023-02-28T02:04:16;0.40;;;0.40;;
14408;SDS011;7289;50.706;4.992;2023-02-28T02:06:45;0.50;;;0.50;;
14408;SDS011;7289;50.706;4.992;2023-02-28T02:09:15;0.40;;;0.40;;
14408;SDS011;7289;50.706;4.992;2023-02-28T02:11:45;0.50;;;0.50;;
14408;SDS011;7289;50.706;4.992;2023-02-28T02:14:27;0.47;;;0.47;;
14408;SDS011;7289;50.706;4.992;2023-02-28T02:17:12;0.50;;;0.50;;
14408;SDS011;7289;50.706;4.992;2023-02-28T02:23:03;0.50;;;0.50;;
14408;SDS011;7289;50.706;4.992;2023-02-28T02:25:43;0.40;;;0.40;;
14408;SDS011;7289;50.706;4.992;2023-02-28T02:28:22;0.40;;;0.40;;
14408;SDS011;7289;50.706;4.992;2023-02-28T02:34:16;0.40;;;0.40;;
14408;SDS011;7289;50.706;4.992;2023-02-28T02:37:07;0.47;;;0.47;;
14408;SDS011;7289;50.706;4.992;2023-02-28T02:39:42;0.40;;;0.40;;
14408;SDS011;7289;50.706;4.992;2023-02-28T02:42:18;0.50;;;0.50;;
14408;SDS011;7289;50.706;4.992;2023-02-28T02:44:53;0.50;;;0.50;;
14408;SDS011;7289;50.706;4.992;2023-02-28T02:47:26;0.40;;;0.40;;
14408;SDS011;7289;50.706;4.992;2023-02-28T02:49:59;0.50;;;0.50;;
14408;SDS011;7289;50.706;4.992;2023-02-28T02:52:34;0.50;;;0.50;;
14408;SDS011;7289;50.706;4.992;2023-02-28T02:55:06;0.47;;;0.47;;
14408;SDS011;7289;50.706;4.992;2023-02-28T02:57:40;0.40;;;0.40;;
14408;SDS011;7289;50.706;4.992;2023-02-28T03:00:14;0.40;;;0.40;;
14408;SDS011;7289;50.706;4.992;2023-02-28T03:02:46;0.47;;;0.47;;
14408;SDS011;7289;50.706;4.992;2023-02-28T03:05:19;0.50;;;0.50;;
14408;SDS011;7289;50.706;4.992;2023-02-28T03:07:51;0.40;;;0.40;;
14408;SDS011;7289;50.706;4.992;2023-02-28T03:10:27;0.50;;;0.50;;
14408;SDS011;7289;50.706;4.992;2023-02-28T03:13:00;0.50;;;0.50;;
14408;SDS011;7289;50.706;4.992;2023-02-28T03:15:48;0.40;;;0.40;;
14408;SDS011;7289;50.706;4.992;2023-02-28T03:18:27;0.40;;;0.40;;
14408;SDS011;7289;50.706;4.992;2023-02-28T03:21:06;0.50;;;0.50;;
14408;SDS011;7289;50.706;4.992;2023-02-28T03:23:45;0.40;;;0.40;;
14408;SDS011;7289;50.706;4.992;2023-02-28T03:26:22;0.40;;;0.40;;
14408;SDS011;7289;50.706;4.992;2023-02-28T03:28:53;0.40;;;0.40;;
14408;SDS011;7289;50.706;4.992;2023-02-28T03:31:30;0.40;;;0.40;;
14408;SDS011;7289;50.706;4.992;2023-02-28T03:34:04;0.40;;;0.40;;
14408;SDS011;7289;50.706;4.992;2023-02-28T03:36:38;0.50;;;0.50;;
14408;SDS011;7289;50.706;4.992;2023-02-28T03:39:11;0.50;;;0.50;;
14408;SDS011;7289;50.706;4.992;2023-02-28T03:41:46;0.47;;;0.47;;
14408;SDS011;7289;50.706;4.992;2023-02-28T03:44:19;0.40;;;0.40;;
14408;SDS011;7289;50.706;4.992;2023-02-28T03:46:52;0.50;;;0.50;;
14408;SDS011;7289;50.706;4.992;2023-02-28T03:49:26;0.50;;;0.50;;
14408;SDS011;7289;50.706;4.992;2023-02-28T03:51:59;0.40;;;0.40;;
14408;SDS011;7289;50.706;4.992;2023-02-28T03:54:35;0.50;;;0.50;;
14408;SDS011;7289;50.706;4.992;2023-02-28T03:57:10;0.50;;;0.50;;
14408;SDS011;7289;50.706;4.992;2023-02-28T03:59:46;0.63;;;0.63;;
14408;SDS011;7289;50.706;4.992;2023-02-28T04:02:20;0.50;;;0.50;;
14408;SDS011;7289;50.706;4.992;2023-02-28T04:04:48;0.50;;;0.50;;
14408;SDS011;7289;50.706;4.992;2023-02-28T04:07:18;0.50;;;0.50;;
14408;SDS011;7289;50.706;4.992;2023-02-28T04:09:47;0.50;;;0.50;;
14408;SDS011;7289;50.706;4.992;2023-02-28T04:12:15;0.40;;;0.40;;
14408;SDS011;7289;50.706;4.992;2023-02-28T04:14:43;0.50;;;0.50;;
14408;SDS011;7289;50.706;4.992;2023-02-28T04:17:12;0.50;;;0.50;;
14408;SDS011;7289;50.706;4.992;2023-02-28T04:19:40;0.50;;;0.50;;
14408;SDS011;7289;50.706;4.992;2023-02-28T04:22:08;0.70;;;0.70;;
14408;SDS011;7289;50.706;4.992;2023-02-28T04:24:38;0.47;;;0.47;;
14408;SDS011;7289;50.706;4.992;2023-02-28T04:27:08;0.47;;;0.47;;
14408;SDS011;7289;50.706;4.992;2023-02-28T04:29:36;0.50;;;0.50;;
14408;SDS011;7289;50.706;4.992;2023-02-28T04:32:05;0.50;;;0.50;;
14408;SDS011;7289;50.706;4.992;2023-02-28T04:34:33;0.40;;;0.40;;
14408;SDS011;7289;50.706;4.992;2023-02-28T04:37:02;0.50;;;0.50;;
14408;SDS011;7289;50.706;4.992;2023-02-28T04:39:41;0.50;;;0.50;;
14408;SDS011;7289;50.706;4.992;2023-02-28T04:42:10;0.50;;;0.50;;
14408;SDS011;7289;50.706;4.992;2023-02-28T04:44:39;0.50;;;0.50;;
14408;SDS011;7289;50.706;4.992;2023-02-28T04:47:07;0.40;;;0.40;;
14408;SDS011;7289;50.706;4.992;2023-02-28T04:49:36;0.40;;;0.40;;
14408;SDS011;7289;50.706;4.992;2023-02-28T04:52:04;0.67;;;0.67;;
14408;SDS011;7289;50.706;4.992;2023-02-28T04:54:34;0.40;;;0.40;;
14408;SDS011;7289;50.706;4.992;2023-02-28T04:57:03;0.50;;;0.50;;
14408;SDS011;7289;50.706;4.992;2023-02-28T04:59:32;0.60;;;0.60;;
14408;SDS011;7289;50.706;4.992;2023-02-28T05:02:01;0.50;;;0.50;;
14408;SDS011;7289;50.706;4.992;2023-02-28T05:04:33;0.50;;;0.50;;
14408;SDS011;7289;50.706;4.992;2023-02-28T05:07:02;0.50;;;0.50;;
14408;SDS011;7289;50.706;4.992;2023-02-28T05:09:31;0.50;;;0.50;;
14408;SDS011;7289;50.706;4.992;2023-02-28T05:12:00;0.57;;;0.57;;
14408;SDS011;7289;50.706;4.992;2023-02-28T05:14:31;0.50;;;0.50;;
14408;SDS011;7289;50.706;4.992;2023-02-28T05:16:59;0.60;;;0.60;;
14408;SDS011;7289;50.706;4.992;2023-02-28T05:19:27;0.50;;;0.50;;
14408;SDS011;7289;50.706;4.992;2023-02-28T05:21:56;0.50;;;0.50;;
14408;SDS011;7289;50.706;4.992;2023-02-28T05:24:24;0.50;;;0.50;;
14408;SDS011;7289;50.706;4.992;2023-02-28T05:26:53;0.50;;;0.50;;
14408;SDS011;7289;50.706;4.992;2023-02-28T05:29:22;0.50;;;0.50;;
14408;SDS011;7289;50.706;4.992;2023-02-28T05:31:51;0.40;;;0.40;;
14408;SDS011;7289;50.706;4.992;2023-02-28T05:34:20;0.50;;;0.50;;
14408;SDS011;7289;50.706;4.992;2023-02-28T05:36:48;0.50;;;0.50;;
14408;SDS011;7289;50.706;4.992;2023-02-28T05:39:17;0.47;;;0.47;;
14408;SDS011;7289;50.706;4.992;2023-02-28T05:41:45;0.40;;;0.40;;
14408;SDS011;7289;50.706;4.992;2023-02-28T05:44:13;0.50;;;0.50;;
14408;SDS011;7289;50.706;4.992;2023-02-28T05:46:43;0.50;;;0.50;;
14408;SDS011;7289;50.706;4.992;2023-02-28T05:49:12;0.40;;;0.40;;
14408;SDS011;7289;50.706;4.992;2023-02-28T05:51:41;0.50;;;0.50;;
14408;SDS011;7289;50.706;4.992;2023-02-28T05:54:09;0.50;;;0.50;;
14408;SDS011;7289;50.706;4.992;2023-02-28T05:56:39;0.40;;;0.40;;
14408;SDS011;7289;50.706;4.992;2023-02-28T05:59:10;0.50;;;0.50;;
14408;SDS011;7289;50.706;4.992;2023-02-28T06:01:39;0.50;;;0.50;;
14408;SDS011;7289;50.706;4.992;2023-02-28T06:04:16;0.50;;;0.50;;
14408;SDS011;7289;50.706;4.992;2023-02-28T06:06:57;0.50;;;0.50;;
14408;SDS011;7289;50.706;4.992;2023-02-28T06:09:26;0.40;;;0.40;;
14408;SDS011;7289;50.706;4.992;2023-02-28T06:11:54;0.40;;;0.40;;
14408;SDS011;7289;50.706;4.992;2023-02-28T06:14:25;0.60;;;0.60;;
14408;SDS011;7289;50.706;4.992;2023-02-28T06:16:53;0.43;;;0.43;;
14408;SDS011;7289;50.706;4.992;2023-02-28T06:19:26;0.67;;;0.67;;
14408;SDS011;7289;50.706;4.992;2023-02-28T06:21:55;0.50;;;0.50;;
14408;SDS011;7289;50.706;4.992;2023-02-28T06:24:25;0.50;;;0.50;;
14408;SDS011;7289;50.706;4.992;2023-02-28T06:26:55;0.50;;;0.50;;
14408;SDS011;7289;50.706;4.992;2023-02-28T06:29:25;0.40;;;0.40;;
14408;SDS011;7289;50.706;4.992;2023-02-28T06:31:53;0.50;;;0.50;;
14408;SDS011;7289;50.706;4.992;2023-02-28T06:34:21;0.50;;;0.50;;
14408;SDS011;7289;50.706;4.992;2023-02-28T06:36:51;0.60;;;0.60;;
14408;SDS011;7289;50.706;4.992;2023-02-28T06:39:20;0.50;;;0.50;;
14408;SDS011;7289;50.706;4.992;2023-02-28T06:41:48;0.50;;;0.50;;
14408;SDS011;7289;50.706;4.992;2023-02-28T06:44:22;0.60;;;0.60;;
14408;SDS011;7289;50.706;4.992;2023-02-28T06:46:51;0.70;;;0.70;;
14408;SDS011;7289;50.706;4.992;2023-02-28T06:49:20;0.50;;;0.50;;
14408;SDS011;7289;50.706;4.992;2023-02-28T06:51:48;0.50;;;0.50;;
14408;SDS011;7289;50.706;4.992;2023-02-28T06:54:17;0.50;;;0.50;;
14408;SDS011;7289;50.706;4.992;2023-02-28T06:56:47;0.40;;;0.40;;
14408;SDS011;7289;50.706;4.992;2023-02-28T06:59:15;0.50;;;0.50;;
14408;SDS011;7289;50.706;4.992;2023-02-28T07:01:44;0.50;;;0.50;;
14408;SDS011;7289;50.706;4.992;2023-02-28T07:04:12;0.50;;;0.50;;
14408;SDS011;7289;50.706;4.992;2023-02-28T07:06:42;0.50;;;0.50;;
14408;SDS011;7289;50.706;4.992;2023-02-28T07:09:10;0.53;;;0.53;;
14408;SDS011;7289;50.706;4.992;2023-02-28T07:11:41;0.50;;;0.50;;
14408;SDS011;7289;50.706;4.992;2023-02-28T07:14:10;0.50;;;0.50;;
14408;SDS011;7289;50.706;4.992;2023-02-28T07:16:38;0.50;;;0.50;;
14408;SDS011;7289;50.706;4.992;2023-02-28T07:19:07;0.50;;;0.50;;
14408;SDS011;7289;50.706;4.992;2023-02-28T07:21:35;0.40;;;0.40;;
14408;SDS011;7289;50.706;4.992;2023-02-28T07:24:04;0.40;;;0.40;;
14408;SDS011;7289;50.706;4.992;2023-02-28T07:26:33;0.50;;;0.50;;
14408;SDS011;7289;50.706;4.992;2023-02-28T07:29:03;0.50;;;0.50;;
14408;SDS011;7289;50.706;4.992;2023-02-28T07:31:31;0.50;;;0.50;;
14408;SDS011;7289;50.706;4.992;2023-02-28T07:33:59;0.50;;;0.50;;
14408;SDS011;7289;50.706;4.992;2023-02-28T07:36:29;0.50;;;0.50;;
14408;SDS011;7289;50.706;4.992;2023-02-28T07:38:57;0.40;;;0.40;;
14408;SDS011;7289;50.706;4.992;2023-02-28T07:41:26;0.47;;;0.47;;
14408;SDS011;7289;50.706;4.992;2023-02-28T07:43:56;0.40;;;0.40;;
14408;SDS011;7289;50.706;4.992;2023-02-28T07:46:27;0.40;;;0.40;;
14408;SDS011;7289;50.706;4.992;2023-02-28T07:49:02;0.50;;;0.50;;
14408;SDS011;7289;50.706;4.992;2023-02-28T07:51:31;0.40;;;0.40;;
14408;SDS011;7289;50.706;4.992;2023-02-28T07:54:00;0.40;;;0.40;;
14408;SDS011;7289;50.706;4.992;2023-02-28T07:56:28;0.40;;;0.40;;
14408;SDS011;7289;50.706;4.992;2023-02-28T07:58:57;0.40;;;0.40;;
14408;SDS011;7289;50.706;4.992;2023-02-28T08:01:25;0.40;;;0.40;;
14408;SDS011;7289;50.706;4.992;2023-02-28T08:03:56;0.50;;;0.50;;
14408;SDS011;7289;50.706;4.992;2023-02-28T08:06:24;0.40;;;0.40;;
14408;SDS011;7289;50.706;4.992;2023-02-28T08:08:53;0.40;;;0.40;;
14408;SDS011;7289;50.706;4.992;2023-02-28T08:11:22;0.40;;;0.40;;
14408;SDS011;7289;50.706;4.992;2023-02-28T08:13:51;0.40;;;0.40;;
14408;SDS011;7289;50.706;4.992;2023-02-28T08:16:19;0.40;;;0.40;;
14408;SDS011;7289;50.706;4.992;2023-02-28T08:18:51;0.43;;;0.43;;
14408;SDS011;7289;50.706;4.992;2023-02-28T08:21:20;0.40;;;0.40;;
14408;SDS011;7289;50.706;4.992;2023-02-28T08:23:49;0.40;;;0.40;;
14408;SDS011;7289;50.706;4.992;2023-02-28T08:26:18;0.40;;;0.40;;
14408;SDS011;7289;50.706;4.992;2023-02-28T08:28:47;0.40;;;0.40;;
14408;SDS011;7289;50.706;4.992;2023-02-28T08:31:16;0.40;;;0.40;;
14408;SDS011;7289;50.706;4.992;2023-02-28T08:33:45;0.50;;;0.50;;
14408;SDS011;7289;50.706;4.992;2023-02-28T08:36:16;0.40;;;0.40;;
14408;SDS011;7289;50.706;4.992;2023-02-28T08:38:45;0.40;;;0.40;;
14408;SDS011;7289;50.706;4.992;2023-02-28T08:41:13;0.40;;;0.40;;
14408;SDS011;7289;50.706;4.992;2023-02-28T08:43:42;0.40;;;0.40;;
14408;SDS011;7289;50.706;4.992;2023-02-28T08:46:11;0.40;;;0.40;;
14408;SDS011;7289;50.706;4.992;2023-02-28T08:48:40;0.40;;;0.40;;
14408;SDS011;7289;50.706;4.992;2023-02-28T08:51:11;0.40;;;0.40;;
14408;SDS011;7289;50.706;4.992;2023-02-28T08:53:42;0.40;;;0.40;;
14408;SDS011;7289;50.706;4.992;2023-02-28T08:56:11;0.40;;;0.40;;
14408;SDS011;7289;50.706;4.992;2023-02-28T08:58:42;0.40;;;0.40;;
14408;SDS011;7289;50.706;4.992;2023-02-28T09:01:13;0.40;;;0.40;;
14408;SDS011;7289;50.706;4.992;2023-02-28T09:03:44;0.40;;;0.40;;
14408;SDS011;7289;50.706;4.992;2023-02-28T09:06:14;0.40;;;0.40;;
14408;SDS011;7289;50.706;4.992;2023-02-28T09:08:45;0.40;;;0.40;;
14408;SDS011;7289;50.706;4.992;2023-02-28T09:11:13;0.40;;;0.40;;
14408;SDS011;7289;50.706;4.992;2023-02-28T09:13:42;0.40;;;0.40;;
14408;SDS011;7289;50.706;4.992;2023-02-28T09:16:11;0.40;;;0.40;;
14408;SDS011;7289;50.706;4.992;2023-02-28T09:18:40;0.40;;;0.40;;
14408;SDS011;7289;50.706;4.992;2023-02-28T09:21:10;0.40;;;0.40;;
14408;SDS011;7289;50.706;4.992;2023-02-28T09:23:42;0.40;;;0.40;;
14408;SDS011;7289;50.706;4.992;2023-02-28T09:26:14;0.40;;;0.40;;
14408;SDS011;7289;50.706;4.992;2023-02-28T09:28:43;0.40;;;0.40;;
14408;SDS011;7289;50.706;4.992;2023-02-28T09:31:13;0.40;;;0.40;;
14408;SDS011;7289;50.706;4.992;2023-02-28T09:33:43;0.40;;;0.40;;
14408;SDS011;7289;50.706;4.992;2023-02-28T09:36:11;0.30;;;0.30;;
14408;SDS011;7289;50.706;4.992;2023-02-28T09:38:40;0.40;;;0.40;;
14408;SDS011;7289;50.706;4.992;2023-02-28T09:41:11;0.40;;;0.40;;
14408;SDS011;7289;50.706;4.992;2023-02-28T09:43:43;0.30;;;0.30;;
14408;SDS011;7289;50.706;4.992;2023-02-28T09:46:27;0.40;;;0.40;;
14408;SDS011;7289;50.706;4.992;2023-02-28T09:48:59;0.33;;;0.33;;
14408;SDS011;7289;50.706;4.992;2023-02-28T09:51:33;0.40;;;0.40;;
14408;SDS011;7289;50.706;4.992;2023-02-28T09:54:11;0.30;;;0.30;;
14408;SDS011;7289;50.706;4.992;2023-02-28T09:56:47;0.40;;;0.40;;
14408;SDS011;7289;50.706;4.992;2023-02-28T09:59:30;0.40;;;0.40;;
14408;SDS011;7289;50.706;4.992;2023-02-28T10:02:11;0.30;;;0.30;;
14408;SDS011;7289;50.706;4.992;2023-02-28T10:04:47;0.30;;;0.30;;
14408;SDS011;7289;50.706;4.992;2023-02-28T10:07:35;0.30;;;0.30;;
14408;SDS011;7289;50.706;4.992;2023-02-28T10:10:15;0.30;;;0.30;;
14408;SDS011;7289;50.706;4.992;2023-02-28T10:12:51;0.40;;;0.40;;
14408;SDS011;7289;50.706;4.992;2023-02-28T10:15:23;0.30;;;0.30;;
14408;SDS011;7289;50.706;4.992;2023-02-28T10:17:56;0.30;;;0.30;;
14408;SDS011;7289;50.706;4.992;2023-02-28T10:20:35;0.30;;;0.30;;
14408;SDS011;7289;50.706;4.992;2023-02-28T10:23:09;0.40;;;0.40;;
14408;SDS011;7289;50.706;4.992;2023-02-28T10:25:45;0.30;;;0.30;;
14408;SDS011;7289;50.706;4.992;2023-02-28T10:28:22;0.30;;;0.30;;
14408;SDS011;7289;50.706;4.992;2023-02-28T10:30:53;0.30;;;0.30;;
14408;SDS011;7289;50.706;4.992;2023-02-28T10:33:23;0.30;;;0.30;;
14408;SDS011;7289;50.706;4.992;2023-02-28T10:35:52;0.30;;;0.30;;
14408;SDS011;7289;50.706;4.992;2023-02-28T10:38:22;0.30;;;0.30;;
14408;SDS011;7289;50.706;4.992;2023-02-28T10:40:51;0.30;;;0.30;;
14408;SDS011;7289;50.706;4.992;2023-02-28T10:43:31;0.30;;;0.30;;
14408;SDS011;7289;50.706;4.992;2023-02-28T10:46:02;0.30;;;0.30;;
14408;SDS011;7289;50.706;4.992;2023-02-28T10:48:36;0.30;;;0.30;;
14408;SDS011;7289;50.706;4.992;2023-02-28T10:51:06;0.30;;;0.30;;
14408;SDS011;7289;50.706;4.992;2023-02-28T10:53:45;0.30;;;0.30;;
14408;SDS011;7289;50.706;4.992;2023-02-28T10:56:26;0.40;;;0.40;;
14408;SDS011;7289;50.706;4.992;2023-02-28T10:58:58;0.30;;;0.30;;
14408;SDS011;7289;50.706;4.992;2023-02-28T11:01:36;0.30;;;0.30;;
14408;SDS011;7289;50.706;4.992;2023-02-28T11:04:18;0.30;;;0.30;;
14408;SDS011;7289;50.706;4.992;2023-02-28T11:06:56;0.40;;;0.40;;
14408;SDS011;7289;50.706;4.992;2023-02-28T11:09:28;0.30;;;0.30;;
14408;SDS011;7289;50.706;4.992;2023-02-28T11:12:01;0.20;;;0.20;;
14408;SDS011;7289;50.706;4.992;2023-02-28T11:14:34;0.30;;;0.30;;
14408;SDS011;7289;50.706;4.992;2023-02-28T11:17:18;0.30;;;0.30;;
14408;SDS011;7289;50.706;4.992;2023-02-28T11:19:50;0.20;;;0.20;;
14408;SDS011;7289;50.706;4.992;2023-02-28T11:22:20;0.30;;;0.30;;
14408;SDS011;7289;50.706;4.992;2023-02-28T11:24:52;0.30;;;0.30;;
14408;SDS011;7289;50.706;4.992;2023-02-28T11:27:45;0.20;;;0.20;;
14408;SDS011;7289;50.706;4.992;2023-02-28T11:30:28;0.30;;;0.30;;
14408;SDS011;7289;50.706;4.992;2023-02-28T11:32:59;0.20;;;0.20;;
14408;SDS011;7289;50.706;4.992;2023-02-28T11:35:30;0.30;;;0.30;;
14408;SDS011;7289;50.706;4.992;2023-02-28T11:38:01;0.20;;;0.20;;
14408;SDS011;7289;50.706;4.992;2023-02-28T11:40:31;0.20;;;0.20;;
14408;SDS011;7289;50.706;4.992;2023-02-28T11:43:16;0.20;;;0.20;;
14408;SDS011;7289;50.706;4.992;2023-02-28T11:46:00;0.20;;;0.20;;
14408;SDS011;7289;50.706;4.992;2023-02-28T11:48:42;0.20;;;0.20;;
14408;SDS011;7289;50.706;4.992;2023-02-28T11:51:21;0.20;;;0.20;;
14408;SDS011;7289;50.706;4.992;2023-02-28T11:54:02;0.27;;;0.27;;
14408;SDS011;7289;50.706;4.992;2023-02-28T11:56:51;0.30;;;0.30;;
14408;SDS011;7289;50.706;4.992;2023-02-28T11:59:32;0.20;;;0.20;;
14408;SDS011;7289;50.706;4.992;2023-02-28T12:02:22;0.20;;;0.20;;
14408;SDS011;7289;50.706;4.992;2023-02-28T12:05:00;0.23;;;0.23;;
14408;SDS011;7289;50.706;4.992;2023-02-28T12:07:44;0.20;;;0.20;;
14408;SDS011;7289;50.706;4.992;2023-02-28T12:10:21;0.30;;;0.30;;
14408;SDS011;7289;50.706;4.992;2023-02-28T12:12:56;0.30;;;0.30;;
14408;SDS011;7289;50.706;4.992;2023-02-28T12:15:47;0.30;;;0.30;;
14408;SDS011;7289;50.706;4.992;2023-02-28T12:18:31;0.20;;;0.20;;
14408;SDS011;7289;50.706;4.992;2023-02-28T12:21:11;0.20;;;0.20;;
14408;SDS011;7289;50.706;4.992;2023-02-28T12:23:50;0.30;;;0.30;;
14408;SDS011;7289;50.706;4.992;2023-02-28T12:26:28;0.30;;;0.30;;
14408;SDS011;7289;50.706;4.992;2023-02-28T12:29:12;0.30;;;0.30;;
14408;SDS011;7289;50.706;4.992;2023-02-28T12:31:46;0.30;;;0.30;;
14408;SDS011;7289;50.706;4.992;2023-02-28T12:34:23;0.30;;;0.30;;
14408;SDS011;7289;50.706;4.992;2023-02-28T12:36:56;0.20;;;0.20;;
14408;SDS011;7289;50.706;4.992;2023-02-28T12:39:29;0.20;;;0.20;;
14408;SDS011;7289;50.706;4.992;2023-02-28T12:42:17;0.20;;;0.20;;
14408;SDS011;7289;50.706;4.992;2023-02-28T12:44:51;0.30;;;0.30;;
14408;SDS011;7289;50.706;4.992;2023-02-28T12:47:23;0.20;;;0.20;;
14408;SDS011;7289;50.706;4.992;2023-02-28T12:49:53;0.30;;;0.30;;
14408;SDS011;7289;50.706;4.992;2023-02-28T12:52:28;0.20;;;0.20;;
14408;SDS011;7289;50.706;4.992;2023-02-28T12:55:07;0.20;;;0.20;;
14408;SDS011;7289;50.706;4.992;2023-02-28T12:57:45;0.20;;;0.20;;
14408;SDS011;7289;50.706;4.992;2023-02-28T13:00:20;0.30;;;0.30;;
14408;SDS011;7289;50.706;4.992;2023-02-28T13:02:59;0.20;;;0.20;;
14408;SDS011;7289;50.706;4.992;2023-02-28T13:11:28;0.20;;;0.20;;
14408;SDS011;7289;50.706;4.992;2023-02-28T13:14:00;0.20;;;0.20;;
14408;SDS011;7289;50.706;4.992;2023-02-28T13:16:50;0.20;;;0.20;;
14408;SDS011;7289;50.706;4.992;2023-02-28T13:19:24;0.20;;;0.20;;
14408;SDS011;7289;50.706;4.992;2023-02-28T13:21:56;0.27;;;0.27;;
14408;SDS011;7289;50.706;4.992;2023-02-28T13:24:36;0.20;;;0.20;;
14408;SDS011;7289;50.706;4.992;2023-02-28T13:27:17;0.20;;;0.20;;
14408;SDS011;7289;50.706;4.992;2023-02-28T13:29:59;0.20;;;0.20;;
14408;SDS011;7289;50.706;4.992;2023-02-28T13:32:33;0.30;;;0.30;;
14408;SDS011;7289;50.706;4.992;2023-02-28T13:35:12;0.20;;;0.20;;
14408;SDS011;7289;50.706;4.992;2023-02-28T13:38:12;0.20;;;0.20;;
14408;SDS011;7289;50.706;4.992;2023-02-28T13:40:52;0.20;;;0.20;;
14408;SDS011;7289;50.706;4.992;2023-02-28T13:43:20;0.30;;;0.30;;
14408;SDS011;7289;50.706;4.992;2023-02-28T13:46:10;0.30;;;0.30;;
14408;SDS011;7289;50.706;4.992;2023-02-28T13:48:41;0.30;;;0.30;;
14408;SDS011;7289;50.706;4.992;2023-02-28T13:51:28;0.20;;;0.20;;
14408;SDS011;7289;50.706;4.992;2023-02-28T13:54:15;0.27;;;0.27;;
14408;SDS011;7289;50.706;4.992;2023-02-28T13:57:06;0.20;;;0.20;;
14408;SDS011;7289;50.706;4.992;2023-02-28T13:59:49;0.20;;;0.20;;
14408;SDS011;7289;50.706;4.992;2023-02-28T14:02:32;0.20;;;0.20;;
14408;SDS011;7289;50.706;4.992;2023-02-28T14:05:12;0.20;;;0.20;;
14408;SDS011;7289;50.706;4.992;2023-02-28T14:07:45;0.30;;;0.30;;
14408;SDS011;7289;50.706;4.992;2023-02-28T14:10:23;0.30;;;0.30;;
14408;SDS011;7289;50.706;4.992;2023-02-28T14:12:56;0.20;;;0.20;;
14408;SDS011;7289;50.706;4.992;2023-02-28T14:15:36;0.30;;;0.30;;
14408;SDS011;7289;50.706;4.992;2023-02-28T14:21:10;0.20;;;0.20;;
14408;SDS011;7289;50.706;4.992;2023-02-28T14:27:20;0.30;;;0.30;;
14408;SDS011;7289;50.706;4.992;2023-02-28T14:30:04;0.30;;;0.30;;
14408;SDS011;7289;50.706;4.992;2023-02-28T14:33:01;0.30;;;0.30;;
14408;SDS011;7289;50.706;4.992;2023-02-28T14:35:43;0.30;;;0.30;;
14408;SDS011;7289;50.706;4.992;2023-02-28T14:38:25;0.30;;;0.30;;
14408;SDS011;7289;50.706;4.992;2023-02-28T14:40:58;0.20;;;0.20;;
14408;SDS011;7289;50.706;4.992;2023-02-28T14:43:34;0.30;;;0.30;;
14408;SDS011;7289;50.706;4.992;2023-02-28T14:46:02;0.20;;;0.20;;
14408;SDS011;7289;50.706;4.992;2023-02-28T14:48:33;0.20;;;0.20;;
14408;SDS011;7289;50.706;4.992;2023-02-28T14:51:05;0.20;;;0.20;;
14408;SDS011;7289;50.706;4.992;2023-02-28T14:53:35;0.20;;;0.20;;
14408;SDS011;7289;50.706;4.992;2023-02-28T14:56:05;0.30;;;0.30;;
14408;SDS011;7289;50.706;4.992;2023-02-28T14:58:36;0.30;;;0.30;;
14408;SDS011;7289;50.706;4.992;2023-02-28T15:01:04;0.20;;;0.20;;
14408;SDS011;7289;50.706;4.992;2023-02-28T15:03:34;0.30;;;0.30;;
14408;SDS011;7289;50.706;4.992;2023-02-28T15:06:04;0.20;;;0.20;;
14408;SDS011;7289;50.706;4.992;2023-02-28T15:08:34;0.20;;;0.20;;
14408;SDS011;7289;50.706;4.992;2023-02-28T15:11:04;0.20;;;0.20;;
14408;SDS011;7289;50.706;4.992;2023-02-28T15:13:38;0.20;;;0.20;;
14408;SDS011;7289;50.706;4.992;2023-02-28T15:16:10;0.30;;;0.30;;
14408;SDS011;7289;50.706;4.992;2023-02-28T15:18:44;0.30;;;0.30;;
14408;SDS011;7289;50.706;4.992;2023-02-28T15:21:16;0.20;;;0.20;;
14408;SDS011;7289;50.706;4.992;2023-02-28T15:23:48;0.20;;;0.20;;
14408;SDS011;7289;50.706;4.992;2023-02-28T15:26:22;0.30;;;0.30;;
14408;SDS011;7289;50.706;4.992;2023-02-28T15:28:57;0.30;;;0.30;;
14408;SDS011;7289;50.706;4.992;2023-02-28T15:31:29;0.30;;;0.30;;
14408;SDS011;7289;50.706;4.992;2023-02-28T15:34:25;0.30;;;0.30;;
14408;SDS011;7289;50.706;4.992;2023-02-28T15:39:57;0.20;;;0.20;;
14408;SDS011;7289;50.706;4.992;2023-02-28T15:42:33;0.23;;;0.23;;
14408;SDS011;7289;50.706;4.992;2023-02-28T15:45:03;0.30;;;0.30;;
14408;SDS011;7289;50.706;4.992;2023-02-28T15:47:32;0.30;;;0.30;;
14408;SDS011;7289;50.706;4.992;2023-02-28T15:50:01;0.27;;;0.27;;
14408;SDS011;7289;50.706;4.992;2023-02-28T15:52:34;0.20;;;0.20;;
14408;SDS011;7289;50.706;4.992;2023-02-28T15:55:08;0.30;;;0.30;;
14408;SDS011;7289;50.706;4.992;2023-02-28T15:57:39;0.30;;;0.30;;